sensor_id;sensor_type;location;lat;lon;timestamp;temperature;humidity
9393;DHT22;4736;52.508;13.422;2023-02-28T00:00:27;1.40;64.50
9393;DHT22;4736;52.508;13.422;2023-02-28T00:03:30;1.40;64.40
9393;DHT22;4736;52.508;13.422;2023-02-28T00:06:37;1.50;64.50
9393;DHT22;4736;52.508;13.422;2023-02-28T00:09:40;1.50;64.50
9393;DHT22;4736;52.508;13.422;2023-02-28T00:12:45;1.50;64.40
9393;DHT22;4736;52.508;13.422;2023-02-28T00:15:58;1.50;64.50
9393;DHT22;4736;52.508;13.422;2023-02-28T00:19:02;1.60;64.50
9393;DHT22;4736;52.508;13.422;2023-02-28T00:22:05;1.60;64.40
9393;DHT22;4736;52.508;13.422;2023-02-28T00:25:10;1.60;64.20
9393;DHT22;4736;52.508;13.422;2023-02-28T00:28:14;1.60;64.20
9393;DHT22;4736;52.508;13.422;2023-02-28T00:31:19;1.60;64.00
9393;DHT22;4736;52.508;13.422;2023-02-28T00:34:22;1.70;63.90
9393;DHT22;4736;52.508;13.422;2023-02-28T00:37:25;1.60;63.90
9393;DHT22;4736;52.508;13.422;2023-02-28T00:40:28;1.60;64.00
9393;DHT22;4736;52.508;13.422;2023-02-28T00:43:34;1.60;64.00
9393;DHT22;4736;52.508;13.422;2023-02-28T00:46:38;1.60;64.10
9393;DHT22;4736;52.508;13.422;2023-02-28T00:49:41;1.60;64.10
9393;DHT22;4736;52.508;13.422;2023-02-28T00:52:44;1.60;64.10
9393;DHT22;4736;52.508;13.422;2023-02-28T00:55:48;1.60;64.10
9393;DHT22;4736;52.508;13.422;2023-02-28T00:58:52;1.60;64.10
9393;DHT22;4736;52.508;13.422;2023-02-28T01:01:56;1.60;64.10
9393;DHT22;4736;52.508;13.422;2023-02-28T01:04:59;1.60;64.10
9393;DHT22;4736;52.508;13.422;2023-02-28T01:08:02;1.60;64.00
9393;DHT22;4736;52.508;13.422;2023-02-28T01:11:09;1.60;64.00
9393;DHT22;4736;52.508;13.422;2023-02-28T01:14:16;1.60;64.00
9393;DHT22;4736;52.508;13.422;2023-02-28T01:17:19;1.60;64.10
9393;DHT22;4736;52.508;13.422;2023-02-28T01:20:22;1.60;64.10
9393;DHT22;4736;52.508;13.422;2023-02-28T01:23:25;1.60;64.20
9393;DHT22;4736;52.508;13.422;2023-02-28T01:26:29;1.50;64.30
9393;DHT22;4736;52.508;13.422;2023-02-28T01:29:34;1.50;64.30
9393;DHT22;4736;52.508;13.422;2023-02-28T01:32:37;1.50;64.40
9393;DHT22;4736;52.508;13.422;2023-02-28T01:35:41;1.50;64.50
9393;DHT22;4736;52.508;13.422;2023-02-28T01:38:44;1.40;64.50
9393;DHT22;4736;52.508;13.422;2023-02-28T01:41:48;1.40;64.60
9393;DHT22;4736;52.508;13.422;2023-02-28T01:45:03;1.40;64.60
9393;DHT22;4736;52.508;13.422;2023-02-28T01:48:08;1.40;64.60
9393;DHT22;4736;52.508;13.422;2023-02-28T01:51:14;1.40;64.70
9393;DHT22;4736;52.508;13.422;2023-02-28T01:54:22;1.30;64.80
9393;DHT22;4736;52.508;13.422;2023-02-28T01:57:29;1.20;64.80
9393;DHT22;4736;52.508;13.422;2023-02-28T02:00:40;1.20;64.90
9393;DHT22;4736;52.508;13.422;2023-02-28T02:03:44;1.10;65.00
9393;DHT22;4736;52.508;13.422;2023-02-28T02:06:47;1.00;65.00
9393;DHT22;4736;52.508;13.422;2023-02-28T02:09:59;1.00;65.20
9393;DHT22;4736;52.508;13.422;2023-02-28T02:16:51;0.80;65.40
9393;DHT22;4736;52.508;13.422;2023-02-28T02:20:16;0.80;65.60
9393;DHT22;4736;52.508;13.422;2023-02-28T02:27:25;0.60;65.80
9393;DHT22;4736;52.508;13.422;2023-02-28T02:30:58;0.50;65.90
9393;DHT22;4736;52.508;13.422;2023-02-28T02:37:52;0.40;66.30
9393;DHT22;4736;52.508;13.422;2023-02-28T02:41:06;0.30;66.40
9393;DHT22;4736;52.508;13.422;2023-02-28T02:44:15;0.30;66.60
9393;DHT22;4736;52.508;13.422;2023-02-28T02:47:22;0.20;66.90
9393;DHT22;4736;52.508;13.422;2023-02-28T02:50:33;0.20;66.90
9393;DHT22;4736;52.508;13.422;2023-02-28T02:53:40;0.10;67.20
9393;DHT22;4736;52.508;13.422;2023-02-28T02:56:46;0.00;67.30
9393;DHT22;4736;52.508;13.422;2023-02-28T02:59:50;0.00;67.40
9393;DHT22;4736;52.508;13.422;2023-02-28T03:02:55;0.00;67.50
9393;DHT22;4736;52.508;13.422;2023-02-28T03:06:01;0.00;67.50
9393;DHT22;4736;52.508;13.422;2023-02-28T03:09:04;0.00;67.70
9393;DHT22;4736;52.508;13.422;2023-02-28T03:12:11;0.00;67.70
9393;DHT22;4736;52.508;13.422;2023-02-28T03:15:19;-0.10;67.80
9393;DHT22;4736;52.508;13.422;2023-02-28T03:18:31;-0.10;67.80
9393;DHT22;4736;52.508;13.422;2023-02-28T03:21:40;-0.10;67.90
9393;DHT22;4736;52.508;13.422;2023-02-28T03:24:50;-0.10;68.00
9393;DHT22;4736;52.508;13.422;2023-02-28T03:28:00;-0.10;68.20
9393;DHT22;4736;52.508;13.422;2023-02-28T03:31:09;-0.20;68.20
9393;DHT22;4736;52.508;13.422;2023-02-28T03:34:19;-0.20;68.30
9393;DHT22;4736;52.508;13.422;2023-02-28T03:37:26;-0.20;68.40
9393;DHT22;4736;52.508;13.422;2023-02-28T03:40:33;-0.20;68.50
9393;DHT22;4736;52.508;13.422;2023-02-28T03:43:44;-0.20;68.60
9393;DHT22;4736;52.508;13.422;2023-02-28T03:46:54;-0.30;68.60
9393;DHT22;4736;52.508;13.422;2023-02-28T03:50:03;-0.30;68.70
9393;DHT22;4736;52.508;13.422;2023-02-28T03:53:13;-0.30;68.80
9393;DHT22;4736;52.508;13.422;2023-02-28T03:56:18;-0.30;68.90
9393;DHT22;4736;52.508;13.422;2023-02-28T03:59:26;-0.40;68.90
9393;DHT22;4736;52.508;13.422;2023-02-28T04:02:31;-0.40;68.90
9393;DHT22;4736;52.508;13.422;2023-02-28T04:05:47;-0.50;69.00
9393;DHT22;4736;52.508;13.422;2023-02-28T04:08:53;-0.40;69.00
9393;DHT22;4736;52.508;13.422;2023-02-28T04:11:56;-0.50;69.00
9393;DHT22;4736;52.508;13.422;2023-02-28T04:14:59;-0.60;69.00
9393;DHT22;4736;52.508;13.422;2023-02-28T04:18:02;-0.60;69.00
9393;DHT22;4736;52.508;13.422;2023-02-28T04:21:06;-0.60;69.10
9393;DHT22;4736;52.508;13.422;2023-02-28T04:24:12;-0.70;69.10
9393;DHT22;4736;52.508;13.422;2023-02-28T04:27:16;-0.70;69.20
9393;DHT22;4736;52.508;13.422;2023-02-28T04:30:19;-0.70;69.30
9393;DHT22;4736;52.508;13.422;2023-02-28T04:33:22;-0.70;69.40
9393;DHT22;4736;52.508;13.422;2023-02-28T04:36:25;-0.70;69.50
9393;DHT22;4736;52.508;13.422;2023-02-28T04:39:30;-0.80;69.50
9393;DHT22;4736;52.508;13.422;2023-02-28T04:42:37;-0.80;69.60
9393;DHT22;4736;52.508;13.422;2023-02-28T04:45:40;-0.80;69.70
9393;DHT22;4736;52.508;13.422;2023-02-28T04:48:43;-0.90;69.70
9393;DHT22;4736;52.508;13.422;2023-02-28T04:51:46;-0.90;69.80
9393;DHT22;4736;52.508;13.422;2023-02-28T04:54:52;-0.90;69.80
9393;DHT22;4736;52.508;13.422;2023-02-28T04:57:56;-0.90;69.90
9393;DHT22;4736;52.508;13.422;2023-02-28T05:01:03;-0.90;70.00
9393;DHT22;4736;52.508;13.422;2023-02-28T05:04:14;-1.00;70.10
9393;DHT22;4736;52.508;13.422;2023-02-28T05:07:22;-1.00;70.20
9393;DHT22;4736;52.508;13.422;2023-02-28T05:10:27;-1.00;70.20
9393;DHT22;4736;52.508;13.422;2023-02-28T05:13:30;-1.00;70.40
9393;DHT22;4736;52.508;13.422;2023-02-28T05:16:33;-1.00;70.40
9393;DHT22;4736;52.508;13.422;2023-02-28T05:19:37;-1.00;70.50
9393;DHT22;4736;52.508;13.422;2023-02-28T05:22:40;-1.10;70.50
9393;DHT22;4736;52.508;13.422;2023-02-28T05:25:45;-1.10;70.50
9393;DHT22;4736;52.508;13.422;2023-02-28T05:28:48;-1.10;70.60
9393;DHT22;4736;52.508;13.422;2023-02-28T05:31:51;-1.10;70.60
9393;DHT22;4736;52.508;13.422;2023-02-28T05:34:54;-1.10;70.70
9393;DHT22;4736;52.508;13.422;2023-02-28T05:37:57;-1.20;70.70
9393;DHT22;4736;52.508;13.422;2023-02-28T05:41:06;-1.20;70.70
9393;DHT22;4736;52.508;13.422;2023-02-28T05:44:10;-1.20;70.80
9393;DHT22;4736;52.508;13.422;2023-02-28T05:47:14;-1.20;70.80
9393;DHT22;4736;52.508;13.422;2023-02-28T05:50:18;-1.30;70.80
9393;DHT22;4736;52.508;13.422;2023-02-28T05:53:21;-1.30;70.80
9393;DHT22;4736;52.508;13.422;2023-02-28T05:56:26;-1.30;70.90
9393;DHT22;4736;52.508;13.422;2023-02-28T05:59:29;-1.30;71.00
9393;DHT22;4736;52.508;13.422;2023-02-28T06:02:33;-1.30;71.00
9393;DHT22;4736;52.508;13.422;2023-02-28T06:05:36;-1.30;71.00
9393;DHT22;4736;52.508;13.422;2023-02-28T06:08:40;-1.30;71.00
9393;DHT22;4736;52.508;13.422;2023-02-28T06:11:46;-1.30;71.10
9393;DHT22;4736;52.508;13.422;2023-02-28T06:14:49;-1.30;71.10
9393;DHT22;4736;52.508;13.422;2023-02-28T06:17:54;-1.30;71.20
9393;DHT22;4736;52.508;13.422;2023-02-28T06:20:58;-1.30;71.20
9393;DHT22;4736;52.508;13.422;2023-02-28T06:24:02;-1.30;71.20
9393;DHT22;4736;52.508;13.422;2023-02-28T06:27:06;-1.20;71.20
9393;DHT22;4736;52.508;13.422;2023-02-28T06:30:10;-1.20;71.20
9393;DHT22;4736;52.508;13.422;2023-02-28T06:33:13;-1.10;71.20
9393;DHT22;4736;52.508;13.422;2023-02-28T06:36:17;-1.10;71.20
9393;DHT22;4736;52.508;13.422;2023-02-28T06:39:20;-1.00;71.20
9393;DHT22;4736;52.508;13.422;2023-02-28T06:42:25;-1.00;71.10
9393;DHT22;4736;52.508;13.422;2023-02-28T06:45:30;-0.90;71.10
9393;DHT22;4736;52.508;13.422;2023-02-28T06:48:34;-0.80;71.00
9393;DHT22;4736;52.508;13.422;2023-02-28T06:51:39;-0.70;71.30
9393;DHT22;4736;52.508;13.422;2023-02-28T06:54:43;-0.10;72.10
9393;DHT22;4736;52.508;13.422;2023-02-28T06:57:47;0.30;70.30
9393;DHT22;4736;52.508;13.422;2023-02-28T07:00:52;0.40;69.20
9393;DHT22;4736;52.508;13.422;2023-02-28T07:03:56;0.40;68.90
9393;DHT22;4736;52.508;13.422;2023-02-28T07:07:00;0.40;69.10
9393;DHT22;4736;52.508;13.422;2023-02-28T07:10:03;0.60;68.90
9393;DHT22;4736;52.508;13.422;2023-02-28T07:13:08;0.80;68.50
9393;DHT22;4736;52.508;13.422;2023-02-28T07:16:11;1.00;67.90
9393;DHT22;4736;52.508;13.422;2023-02-28T07:19:15;1.10;67.20
9393;DHT22;4736;52.508;13.422;2023-02-28T07:22:18;1.00;67.00
9393;DHT22;4736;52.508;13.422;2023-02-28T07:25:21;1.00;66.80
9393;DHT22;4736;52.508;13.422;2023-02-28T07:28:26;1.00;66.90
9393;DHT22;4736;52.508;13.422;2023-02-28T07:31:29;1.00;66.80
9393;DHT22;4736;52.508;13.422;2023-02-28T07:34:33;1.00;66.50
9393;DHT22;4736;52.508;13.422;2023-02-28T07:37:36;1.00;66.50
9393;DHT22;4736;52.508;13.422;2023-02-28T07:40:39;1.00;66.20
9393;DHT22;4736;52.508;13.422;2023-02-28T07:43:44;1.10;65.70
9393;DHT22;4736;52.508;13.422;2023-02-28T07:46:48;1.20;65.40
9393;DHT22;4736;52.508;13.422;2023-02-28T07:49:51;1.30;64.10
9393;DHT22;4736;52.508;13.422;2023-02-28T07:52:54;1.40;63.40
9393;DHT22;4736;52.508;13.422;2023-02-28T07:55:58;1.40;62.80
9393;DHT22;4736;52.508;13.422;2023-02-28T07:59:04;1.50;62.40
9393;DHT22;4736;52.508;13.422;2023-02-28T08:02:10;1.60;61.60
9393;DHT22;4736;52.508;13.422;2023-02-28T08:05:15;1.70;61.40
9393;DHT22;4736;52.508;13.422;2023-02-28T08:08:22;1.80;60.40
9393;DHT22;4736;52.508;13.422;2023-02-28T08:11:32;1.90;59.10
9393;DHT22;4736;52.508;13.422;2023-02-28T08:14:37;2.00;57.50
9393;DHT22;4736;52.508;13.422;2023-02-28T08:17:41;2.10;57.10
9393;DHT22;4736;52.508;13.422;2023-02-28T08:20:44;2.20;56.50
9393;DHT22;4736;52.508;13.422;2023-02-28T08:23:47;2.30;55.90
9393;DHT22;4736;52.508;13.422;2023-02-28T08:26:51;2.50;55.40
9393;DHT22;4736;52.508;13.422;2023-02-28T08:29:55;2.50;55.20
9393;DHT22;4736;52.508;13.422;2023-02-28T08:32:58;2.70;54.10
9393;DHT22;4736;52.508;13.422;2023-02-28T08:36:03;2.80;52.70
9393;DHT22;4736;52.508;13.422;2023-02-28T08:39:07;2.80;50.10
9393;DHT22;4736;52.508;13.422;2023-02-28T08:42:10;2.80;50.20
9393;DHT22;4736;52.508;13.422;2023-02-28T08:45:15;2.80;49.80
9393;DHT22;4736;52.508;13.422;2023-02-28T08:48:18;3.00;49.90
9393;DHT22;4736;52.508;13.422;2023-02-28T08:51:22;3.10;49.70
9393;DHT22;4736;52.508;13.422;2023-02-28T08:54:29;3.30;49.40
9393;DHT22;4736;52.508;13.422;2023-02-28T08:57:33;3.40;49.00
9393;DHT22;4736;52.508;13.422;2023-02-28T09:00:37;3.40;48.00
9393;DHT22;4736;52.508;13.422;2023-02-28T09:03:41;3.30;48.30
9393;DHT22;4736;52.508;13.422;2023-02-28T09:06:44;3.60;48.20
9393;DHT22;4736;52.508;13.422;2023-02-28T09:09:50;3.70;48.40
9393;DHT22;4736;52.508;13.422;2023-02-28T09:12:56;3.60;47.30
9393;DHT22;4736;52.508;13.422;2023-02-28T09:16:02;3.60;47.60
9393;DHT22;4736;52.508;13.422;2023-02-28T09:19:05;3.80;47.70
9393;DHT22;4736;52.508;13.422;2023-02-28T09:22:09;3.90;47.80
9393;DHT22;4736;52.508;13.422;2023-02-28T09:25:12;4.10;47.90
9393;DHT22;4736;52.508;13.422;2023-02-28T09:28:16;4.10;46.90
9393;DHT22;4736;52.508;13.422;2023-02-28T09:31:23;4.10;46.50
9393;DHT22;4736;52.508;13.422;2023-02-28T09:34:27;4.20;46.70
9393;DHT22;4736;52.508;13.422;2023-02-28T09:37:32;4.30;46.70
9393;DHT22;4736;52.508;13.422;2023-02-28T09:40:37;4.40;47.10
9393;DHT22;4736;52.508;13.422;2023-02-28T09:43:45;4.40;46.90
9393;DHT22;4736;52.508;13.422;2023-02-28T09:46:55;4.50;46.60
9393;DHT22;4736;52.508;13.422;2023-02-28T09:50:06;4.70;46.90
9393;DHT22;4736;52.508;13.422;2023-02-28T09:53:19;4.70;47.00
9393;DHT22;4736;52.508;13.422;2023-02-28T09:56:31;4.80;46.60
9393;DHT22;4736;52.508;13.422;2023-02-28T09:59:42;5.00;46.90
9393;DHT22;4736;52.508;13.422;2023-02-28T10:02:58;5.00;46.50
9393;DHT22;4736;52.508;13.422;2023-02-28T10:06:09;5.30;46.10
9393;DHT22;4736;52.508;13.422;2023-02-28T10:09:17;5.20;46.20
9393;DHT22;4736;52.508;13.422;2023-02-28T10:12:22;5.30;45.70
9393;DHT22;4736;52.508;13.422;2023-02-28T10:15:30;5.30;45.80
9393;DHT22;4736;52.508;13.422;2023-02-28T10:18:41;5.30;46.20
9393;DHT22;4736;52.508;13.422;2023-02-28T10:21:52;5.50;46.00
9393;DHT22;4736;52.508;13.422;2023-02-28T10:24:58;5.60;46.20
9393;DHT22;4736;52.508;13.422;2023-02-28T10:28:12;5.70;45.80
9393;DHT22;4736;52.508;13.422;2023-02-28T10:31:19;5.70;45.10
9393;DHT22;4736;52.508;13.422;2023-02-28T10:34:24;5.70;45.10
9393;DHT22;4736;52.508;13.422;2023-02-28T10:37:27;5.80;44.90
9393;DHT22;4736;52.508;13.422;2023-02-28T10:40:33;5.70;45.60
9393;DHT22;4736;52.508;13.422;2023-02-28T10:43:40;5.80;45.50
9393;DHT22;4736;52.508;13.422;2023-02-28T10:46:44;6.00;44.60
9393;DHT22;4736;52.508;13.422;2023-02-28T10:49:50;6.10;44.80
9393;DHT22;4736;52.508;13.422;2023-02-28T10:52:55;6.20;45.30
9393;DHT22;4736;52.508;13.422;2023-02-28T10:56:00;6.50;45.00
9393;DHT22;4736;52.508;13.422;2023-02-28T10:59:26;6.60;44.30
9393;DHT22;4736;52.508;13.422;2023-02-28T11:02:33;6.50;44.20
9393;DHT22;4736;52.508;13.422;2023-02-28T11:05:38;6.70;44.50
9393;DHT22;4736;52.508;13.422;2023-02-28T11:08:45;6.60;44.00
9393;DHT22;4736;52.508;13.422;2023-02-28T11:11:49;6.60;44.50
9393;DHT22;4736;52.508;13.422;2023-02-28T11:14:56;6.50;44.80
9393;DHT22;4736;52.508;13.422;2023-02-28T11:18:04;6.80;44.40
9393;DHT22;4736;52.508;13.422;2023-02-28T11:21:16;6.80;44.00
9393;DHT22;4736;52.508;13.422;2023-02-28T11:24:23;7.00;44.50
9393;DHT22;4736;52.508;13.422;2023-02-28T11:27:46;7.00;43.70
9393;DHT22;4736;52.508;13.422;2023-02-28T11:31:02;7.20;43.50
9393;DHT22;4736;52.508;13.422;2023-02-28T11:34:23;7.20;44.30
9393;DHT22;4736;52.508;13.422;2023-02-28T11:37:28;7.00;43.80
9393;DHT22;4736;52.508;13.422;2023-02-28T11:40:41;7.00;44.70
9393;DHT22;4736;52.508;13.422;2023-02-28T11:44:04;7.00;43.90
9393;DHT22;4736;52.508;13.422;2023-02-28T11:47:14;7.00;44.10
9393;DHT22;4736;52.508;13.422;2023-02-28T11:50:37;6.80;43.80
9393;DHT22;4736;52.508;13.422;2023-02-28T11:54:02;6.60;45.00
9393;DHT22;4736;52.508;13.422;2023-02-28T11:57:27;6.50;44.80
9393;DHT22;4736;52.508;13.422;2023-02-28T12:00:40;6.70;45.50
9393;DHT22;4736;52.508;13.422;2023-02-28T12:04:03;6.70;44.80
9393;DHT22;4736;52.508;13.422;2023-02-28T12:07:18;6.80;45.00
9393;DHT22;4736;52.508;13.422;2023-02-28T12:10:29;6.90;44.80
9393;DHT22;4736;52.508;13.422;2023-02-28T12:13:46;6.90;45.40
9393;DHT22;4736;52.508;13.422;2023-02-28T12:17:01;6.90;44.40
9393;DHT22;4736;52.508;13.422;2023-02-28T12:20:15;7.00;44.60
9393;DHT22;4736;52.508;13.422;2023-02-28T12:23:34;7.30;44.70
9393;DHT22;4736;52.508;13.422;2023-02-28T12:26:44;7.40;43.80
9393;DHT22;4736;52.508;13.422;2023-02-28T12:29:49;7.40;44.10
9393;DHT22;4736;52.508;13.422;2023-02-28T12:32:58;7.50;44.10
9393;DHT22;4736;52.508;13.422;2023-02-28T12:36:07;7.30;44.00
9393;DHT22;4736;52.508;13.422;2023-02-28T12:39:16;7.30;44.20
9393;DHT22;4736;52.508;13.422;2023-02-28T12:42:28;7.40;43.80
9393;DHT22;4736;52.508;13.422;2023-02-28T12:45:40;7.50;43.30
9393;DHT22;4736;52.508;13.422;2023-02-28T12:48:47;7.50;43.90
9393;DHT22;4736;52.508;13.422;2023-02-28T12:51:52;7.50;44.30
9393;DHT22;4736;52.508;13.422;2023-02-28T12:55:01;7.60;44.00
9393;DHT22;4736;52.508;13.422;2023-02-28T12:58:13;7.70;43.50
9393;DHT22;4736;52.508;13.422;2023-02-28T13:01:33;7.80;43.80
9393;DHT22;4736;52.508;13.422;2023-02-28T13:04:52;7.80;43.20
9393;DHT22;4736;52.508;13.422;2023-02-28T13:11:43;7.60;43.20
9393;DHT22;4736;52.508;13.422;2023-02-28T13:14:49;7.60;43.70
9393;DHT22;4736;52.508;13.422;2023-02-28T13:17:55;7.80;43.40
9393;DHT22;4736;52.508;13.422;2023-02-28T13:21:00;7.80;43.40
9393;DHT22;4736;52.508;13.422;2023-02-28T13:24:05;7.80;43.00
9393;DHT22;4736;52.508;13.422;2023-02-28T13:27:33;7.80;43.00
9393;DHT22;4736;52.508;13.422;2023-02-28T13:31:06;7.70;43.20
9393;DHT22;4736;52.508;13.422;2023-02-28T13:34:15;7.60;43.50
9393;DHT22;4736;52.508;13.422;2023-02-28T13:37:35;7.60;43.40
9393;DHT22;4736;52.508;13.422;2023-02-28T13:40:40;7.60;43.50
9393;DHT22;4736;52.508;13.422;2023-02-28T13:44:03;7.50;43.20
9393;DHT22;4736;52.508;13.422;2023-02-28T13:47:23;7.60;43.50
9393;DHT22;4736;52.508;13.422;2023-02-28T13:50:31;7.60;43.60
9393;DHT22;4736;52.508;13.422;2023-02-28T13:53:55;7.60;44.00
9393;DHT22;4736;52.508;13.422;2023-02-28T13:57:09;7.60;44.00
9393;DHT22;4736;52.508;13.422;2023-02-28T14:00:22;7.60;43.70
9393;DHT22;4736;52.508;13.422;2023-02-28T14:06:55;7.50;43.50
9393;DHT22;4736;52.508;13.422;2023-02-28T14:10:02;7.50;43.70
9393;DHT22;4736;52.508;13.422;2023-02-28T14:13:39;7.50;43.50
9393;DHT22;4736;52.508;13.422;2023-02-28T14:16:47;7.50;43.60
9393;DHT22;4736;52.508;13.422;2023-02-28T14:19:53;7.50;43.80
9393;DHT22;4736;52.508;13.422;2023-02-28T14:23:05;7.50;43.70
9393;DHT22;4736;52.508;13.422;2023-02-28T14:26:19;7.50;42.90
9393;DHT22;4736;52.508;13.422;2023-02-28T14:33:26;7.50;43.10
9393;DHT22;4736;52.508;13.422;2023-02-28T14:36:50;7.40;43.20
9393;DHT22;4736;52.508;13.422;2023-02-28T14:39:55;7.20;43.30
9393;DHT22;4736;52.508;13.422;2023-02-28T14:43:01;7.10;43.30
9393;DHT22;4736;52.508;13.422;2023-02-28T14:46:06;7.00;43.70
9393;DHT22;4736;52.508;13.422;2023-02-28T14:49:16;7.00;43.90
9393;DHT22;4736;52.508;13.422;2023-02-28T14:52:22;6.90;43.50
9393;DHT22;4736;52.508;13.422;2023-02-28T14:55:28;6.60;43.50
9393;DHT22;4736;52.508;13.422;2023-02-28T14:58:33;6.50;43.90
9393;DHT22;4736;52.508;13.422;2023-02-28T15:01:36;6.20;44.50
9393;DHT22;4736;52.508;13.422;2023-02-28T15:04:39;6.10;44.50
9393;DHT22;4736;52.508;13.422;2023-02-28T15:07:45;6.10;44.60
9393;DHT22;4736;52.508;13.422;2023-02-28T15:10:53;6.00;44.90
9393;DHT22;4736;52.508;13.422;2023-02-28T15:13:57;6.00;45.00
9393;DHT22;4736;52.508;13.422;2023-02-28T15:17:02;5.90;44.70
9393;DHT22;4736;52.508;13.422;2023-02-28T15:20:11;5.80;45.20
9393;DHT22;4736;52.508;13.422;2023-02-28T15:23:17;5.70;45.60
9393;DHT22;4736;52.508;13.422;2023-02-28T15:26:26;5.60;45.90
9393;DHT22;4736;52.508;13.422;2023-02-28T15:29:33;5.50;45.90
9393;DHT22;4736;52.508;13.422;2023-02-28T15:32:39;5.50;45.90
9393;DHT22;4736;52.508;13.422;2023-02-28T15:35:43;5.30;46.20
9393;DHT22;4736;52.508;13.422;2023-02-28T15:38:50;5.20;46.40
9393;DHT22;4736;52.508;13.422;2023-02-28T15:42:11;5.00;46.50
9393;DHT22;4736;52.508;13.422;2023-02-28T15:45:30;5.00;46.50
9393;DHT22;4736;52.508;13.422;2023-02-28T15:48:38;5.00;46.70
9393;DHT22;4736;52.508;13.422;2023-02-28T15:51:45;4.90;46.80
9393;DHT22;4736;52.508;13.422;2023-02-28T15:54:51;4.70;47.10
9393;DHT22;4736;52.508;13.422;2023-02-28T15:57:56;4.70;47.60
9393;DHT22;4736;52.508;13.422;2023-02-28T16:01:04;4.60;47.90
9393;DHT22;4736;52.508;13.422;2023-02-28T16:04:15;4.50;48.10
9393;DHT22;4736;52.508;13.422;2023-02-28T16:07:19;4.50;48.50
9393;DHT22;4736;52.508;13.422;2023-02-28T16:10:25;4.40;48.60
9393;DHT22;4736;52.508;13.422;2023-02-28T16:13:29;4.40;48.50
9393;DHT22;4736;52.508;13.422;2023-02-28T16:16:33;4.30;48.40
9393;DHT22;4736;52.508;13.422;2023-02-28T16:19:36;4.30;48.70
9393;DHT22;4736;52.508;13.422;2023-02-28T16:22:39;4.20;48.90
9393;DHT22;4736;52.508;13.422;2023-02-28T16:25:45;4.20;49.00
9393;DHT22;4736;52.508;13.422;2023-02-28T16:28:49;4.10;48.90
9393;DHT22;4736;52.508;13.422;2023-02-28T16:31:52;4.00;49.20
9393;DHT22;4736;52.508;13.422;2023-02-28T16:34:56;4.00;49.40
9393;DHT22;4736;52.508;13.422;2023-02-28T16:37:59;3.90;49.70
9393;DHT22;4736;52.508;13.422;2023-02-28T16:41:05;3.80;50.00
9393;DHT22;4736;52.508;13.422;2023-02-28T16:44:12;3.70;50.10
9393;DHT22;4736;52.508;13.422;2023-02-28T16:47:17;3.60;50.30
9393;DHT22;4736;52.508;13.422;2023-02-28T16:50:22;3.50;50.50
9393;DHT22;4736;52.508;13.422;2023-02-28T16:53:26;3.50;50.70
9393;DHT22;4736;52.508;13.422;2023-02-28T16:56:30;3.40;50.90
9393;DHT22;4736;52.508;13.422;2023-02-28T16:59:34;3.30;50.80
9393;DHT22;4736;52.508;13.422;2023-02-28T17:02:37;3.30;50.90
9393;DHT22;4736;52.508;13.422;2023-02-28T17:05:43;3.20;51.00
9393;DHT22;4736;52.508;13.422;2023-02-28T17:08:47;3.10;50.90
9393;DHT22;4736;52.508;13.422;2023-02-28T17:11:51;3.20;51.00
9393;DHT22;4736;52.508;13.422;2023-02-28T17:14:55;3.10;51.20
9393;DHT22;4736;52.508;13.422;2023-02-28T17:17:58;3.10;51.20
9393;DHT22;4736;52.508;13.422;2023-02-28T17:21:01;3.10;51.20
9393;DHT22;4736;52.508;13.422;2023-02-28T17:24:04;3.10;51.10
9393;DHT22;4736;52.508;13.422;2023-02-28T17:27:11;3.00;51.40
9393;DHT22;4736;52.508;13.422;2023-02-28T17:30:17;3.00;51.70
9393;DHT22;4736;52.508;13.422;2023-02-28T17:33:20;2.90;51.90
9393;DHT22;4736;52.508;13.422;2023-02-28T17:36:25;2.80;52.20
9393;DHT22;4736;52.508;13.422;2023-02-28T17:39:29;2.70;52.40
9393;DHT22;4736;52.508;13.422;2023-02-28T17:42:33;2.60;52.60
9393;DHT22;4736;52.508;13.422;2023-02-28T17:45:37;2.50;52.90
9393;DHT22;4736;52.508;13.422;2023-02-28T17:48:40;2.50;53.00
9393;DHT22;4736;52.508;13.422;2023-02-28T17:51:43;2.50;53.20
9393;DHT22;4736;52.508;13.422;2023-02-28T17:54:46;2.40;53.40
9393;DHT22;4736;52.508;13.422;2023-02-28T17:57:50;2.40;53.50
9393;DHT22;4736;52.508;13.422;2023-02-28T18:00:53;2.30;53.60
9393;DHT22;4736;52.508;13.422;2023-02-28T18:03:56;2.30;53.60
9393;DHT22;4736;52.508;13.422;2023-02-28T18:07:00;2.20;53.70
9393;DHT22;4736;52.508;13.422;2023-02-28T18:10:04;2.20;53.90
9393;DHT22;4736;52.508;13.422;2023-02-28T18:13:08;2.20;54.00
9393;DHT22;4736;52.508;13.422;2023-02-28T18:16:14;2.10;54.00
9393;DHT22;4736;52.508;13.422;2023-02-28T18:19:18;2.10;54.20
9393;DHT22;4736;52.508;13.422;2023-02-28T18:22:22;2.00;54.40
9393;DHT22;4736;52.508;13.422;2023-02-28T18:25:26;2.00;54.40
9393;DHT22;4736;52.508;13.422;2023-02-28T18:28:30;1.90;54.60
9393;DHT22;4736;52.508;13.422;2023-02-28T18:31:35;1.90;54.70
9393;DHT22;4736;52.508;13.422;2023-02-28T18:34:38;1.80;54.90
9393;DHT22;4736;52.508;13.422;2023-02-28T18:37:41;1.80;55.00
9393;DHT22;4736;52.508;13.422;2023-02-28T18:40:51;1.80;55.10
9393;DHT22;4736;52.508;13.422;2023-02-28T18:43:58;1.80;55.20
9393;DHT22;4736;52.508;13.422;2023-02-28T18:47:14;1.80;55.40
9393;DHT22;4736;52.508;13.422;2023-02-28T18:50:17;1.70;55.40
9393;DHT22;4736;52.508;13.422;2023-02-28T18:53:20;1.70;55.40
9393;DHT22;4736;52.508;13.422;2023-02-28T18:56:25;1.60;55.50
9393;DHT22;4736;52.508;13.422;2023-02-28T18:59:30;1.60;55.70
9393;DHT22;4736;52.508;13.422;2023-02-28T19:02:35;1.60;55.80
9393;DHT22;4736;52.508;13.422;2023-02-28T19:05:38;1.50;56.00
9393;DHT22;4736;52.508;13.422;2023-02-28T19:08:42;1.50;56.20
9393;DHT22;4736;52.508;13.422;2023-02-28T19:11:45;1.50;56.30
9393;DHT22;4736;52.508;13.422;2023-02-28T19:14:50;1.40;56.40
9393;DHT22;4736;52.508;13.422;2023-02-28T19:17:53;1.40;56.60
9393;DHT22;4736;52.508;13.422;2023-02-28T19:20:56;1.40;56.80
9393;DHT22;4736;52.508;13.422;2023-02-28T19:24:01;1.30;56.90
9393;DHT22;4736;52.508;13.422;2023-02-28T19:27:05;1.30;57.10
9393;DHT22;4736;52.508;13.422;2023-02-28T19:30:10;1.20;57.10
9393;DHT22;4736;52.508;13.422;2023-02-28T19:33:13;1.20;57.20
9393;DHT22;4736;52.508;13.422;2023-02-28T19:36:20;1.20;57.30
9393;DHT22;4736;52.508;13.422;2023-02-28T19:39:23;1.10;57.60
9393;DHT22;4736;52.508;13.422;2023-02-28T19:42:26;1.10;57.60
9393;DHT22;4736;52.508;13.422;2023-02-28T19:45:36;1.10;57.50
9393;DHT22;4736;52.508;13.422;2023-02-28T19:48:39;1.10;57.60
9393;DHT22;4736;52.508;13.422;2023-02-28T19:51:43;1.00;57.70
9393;DHT22;4736;52.508;13.422;2023-02-28T19:54:47;1.00;57.70
9393;DHT22;4736;52.508;13.422;2023-02-28T19:57:50;1.00;57.70
9393;DHT22;4736;52.508;13.422;2023-02-28T20:00:54;1.00;57.80
9393;DHT22;4736;52.508;13.422;2023-02-28T20:03:57;1.00;58.00
9393;DHT22;4736;52.508;13.422;2023-02-28T20:07:00;1.00;58.00
9393;DHT22;4736;52.508;13.422;2023-02-28T20:10:04;0.90;58.10
9393;DHT22;4736;52.508;13.422;2023-02-28T20:13:08;0.80;58.20
9393;DHT22;4736;52.508;13.422;2023-02-28T20:16:13;0.80;58.30
9393;DHT22;4736;52.508;13.422;2023-02-28T20:19:17;0.80;58.40
9393;DHT22;4736;52.508;13.422;2023-02-28T20:22:20;0.80;58.50
9393;DHT22;4736;52.508;13.422;2023-02-28T20:25:23;0.80;58.70
9393;DHT22;4736;52.508;13.422;2023-02-28T20:28:26;0.70;58.80
9393;DHT22;4736;52.508;13.422;2023-02-28T20:31:31;0.60;58.90
9393;DHT22;4736;52.508;13.422;2023-02-28T20:34:35;0.60;59.20
9393;DHT22;4736;52.508;13.422;2023-02-28T20:37:38;0.60;59.20